sensor_id;sensor_type;location;lat;lon;timestamp;P1;durP1;ratioP1;P2;durP2;ratioP2
37305;SDS011;23193;42.656;21.170;2023-05-18T00:01:40;6.07;;;3.80;;
37305;SDS011;23193;42.656;21.170;2023-05-18T00:04:07;7.78;;;4.38;;
37305;SDS011;23193;42.656;21.170;2023-05-18T00:06:34;4.70;;;3.60;;
37305;SDS011;23193;42.656;21.170;2023-05-18T00:09:00;5.22;;;3.75;;
37305;SDS011;23193;42.656;21.170;2023-05-18T00:11:26;5.10;;;3.72;;
37305;SDS011;23193;42.656;21.170;2023-05-18T00:13:52;8.88;;;3.70;;
37305;SDS011;23193;42.656;21.170;2023-05-18T00:16:18;4.72;;;3.53;;
37305;SDS011;23193;42.656;21.170;2023-05-18T00:18:45;7.00;;;3.15;;
37305;SDS011;23193;42.656;21.170;2023-05-18T00:21:11;4.97;;;2.60;;
37305;SDS011;23193;42.656;21.170;2023-05-18T00:23:40;3.67;;;2.50;;
37305;SDS011;23193;42.656;21.170;2023-05-18T00:26:09;7.57;;;2.97;;
37305;SDS011;23193;42.656;21.170;2023-05-18T00:28:35;4.60;;;2.20;;
37305;SDS011;23193;42.656;21.170;2023-05-18T00:31:02;4.80;;;2.35;;
37305;SDS011;23193;42.656;21.170;2023-05-18T00:33:28;3.20;;;2.40;;
37305;SDS011;23193;42.656;21.170;2023-05-18T00:35:54;6.68;;;2.30;;
37305;SDS011;23193;42.656;21.170;2023-05-18T00:38:21;3.67;;;2.28;;
37305;SDS011;23193;42.656;21.170;2023-05-18T00:40:47;7.93;;;2.08;;
37305;SDS011;23193;42.656;21.170;2023-05-18T00:43:13;2.83;;;2.17;;
37305;SDS011;23193;42.656;21.170;2023-05-18T00:45:39;5.30;;;2.20;;
37305;SDS011;23193;42.656;21.170;2023-05-18T00:48:06;3.35;;;2.10;;
37305;SDS011;23193;42.656;21.170;2023-05-18T00:50:32;4.32;;;2.15;;
37305;SDS011;23193;42.656;21.170;2023-05-18T00:52:58;4.78;;;2.58;;
37305;SDS011;23193;42.656;21.170;2023-05-18T00:55:24;3.78;;;2.00;;
37305;SDS011;23193;42.656;21.170;2023-05-18T00:57:52;5.47;;;2.10;;
37305;SDS011;23193;42.656;21.170;2023-05-18T01:00:20;6.57;;;2.80;;
37305;SDS011;23193;42.656;21.170;2023-05-18T01:02:47;6.88;;;2.30;;
37305;SDS011;23193;42.656;21.170;2023-05-18T01:05:15;4.30;;;2.22;;
37305;SDS011;23193;42.656;21.170;2023-05-18T01:07:42;5.15;;;2.33;;
37305;SDS011;23193;42.656;21.170;2023-05-18T01:10:09;8.18;;;2.92;;
37305;SDS011;23193;42.656;21.170;2023-05-18T01:12:36;6.20;;;2.25;;
37305;SDS011;23193;42.656;21.170;2023-05-18T01:25:11;5.70;;;2.42;;
37305;SDS011;23193;42.656;21.170;2023-05-18T01:27:44;6.00;;;2.80;;
37305;SDS011;23193;42.656;21.170;2023-05-18T01:30:12;5.68;;;3.40;;
37305;SDS011;23193;42.656;21.170;2023-05-18T01:32:40;5.25;;;2.60;;
37305;SDS011;23193;42.656;21.170;2023-05-18T01:35:10;5.38;;;2.60;;
37305;SDS011;23193;42.656;21.170;2023-05-18T01:37:36;2.92;;;2.45;;
37305;SDS011;23193;42.656;21.170;2023-05-18T01:40:03;4.95;;;2.80;;
37305;SDS011;23193;42.656;21.170;2023-05-18T01:42:30;12.63;;;3.45;;
37305;SDS011;23193;42.656;21.170;2023-05-18T01:45:01;3.95;;;2.80;;
37305;SDS011;23193;42.656;21.170;2023-05-18T01:47:28;3.40;;;2.45;;
37305;SDS011;23193;42.656;21.170;2023-05-18T01:49:58;4.38;;;3.15;;
37305;SDS011;23193;42.656;21.170;2023-05-18T01:52:31;10.23;;;2.50;;
37305;SDS011;23193;42.656;21.170;2023-05-18T01:54:59;6.03;;;3.08;;
37305;SDS011;23193;42.656;21.170;2023-05-18T01:57:27;4.35;;;2.67;;
37305;SDS011;23193;42.656;21.170;2023-05-18T01:59:55;8.05;;;2.97;;
37305;SDS011;23193;42.656;21.170;2023-05-18T02:02:24;5.43;;;3.08;;
37305;SDS011;23193;42.656;21.170;2023-05-18T02:04:50;5.65;;;3.30;;
37305;SDS011;23193;42.656;21.170;2023-05-18T02:07:17;4.88;;;3.08;;
37305;SDS011;23193;42.656;21.170;2023-05-18T02:09:43;7.90;;;3.58;;
37305;SDS011;23193;42.656;21.170;2023-05-18T02:12:09;4.63;;;3.35;;
37305;SDS011;23193;42.656;21.170;2023-05-18T02:14:36;8.02;;;3.20;;
37305;SDS011;23193;42.656;21.170;2023-05-18T02:17:02;8.38;;;3.67;;
37305;SDS011;23193;42.656;21.170;2023-05-18T02:19:31;4.88;;;2.95;;
37305;SDS011;23193;42.656;21.170;2023-05-18T02:21:58;7.22;;;3.63;;
37305;SDS011;23193;42.656;21.170;2023-05-18T02:24:24;6.93;;;3.47;;
37305;SDS011;23193;42.656;21.170;2023-05-18T02:26:51;7.35;;;3.58;;
37305;SDS011;23193;42.656;21.170;2023-05-18T02:29:17;6.15;;;3.80;;
37305;SDS011;23193;42.656;21.170;2023-05-18T02:31:43;5.90;;;3.47;;
37305;SDS011;23193;42.656;21.170;2023-05-18T02:34:09;5.35;;;3.33;;
37305;SDS011;23193;42.656;21.170;2023-05-18T02:36:36;6.38;;;3.35;;
37305;SDS011;23193;42.656;21.170;2023-05-18T02:39:04;7.00;;;3.63;;
37305;SDS011;23193;42.656;21.170;2023-05-18T02:41:30;6.15;;;3.90;;
37305;SDS011;23193;42.656;21.170;2023-05-18T02:43:57;7.10;;;3.15;;
37305;SDS011;23193;42.656;21.170;2023-05-18T02:46:23;5.50;;;3.58;;
37305;SDS011;23193;42.656;21.170;2023-05-18T02:48:49;4.53;;;3.70;;
37305;SDS011;23193;42.656;21.170;2023-05-18T02:51:15;5.78;;;4.10;;
37305;SDS011;23193;42.656;21.170;2023-05-18T02:53:42;5.20;;;3.42;;
37305;SDS011;23193;42.656;21.170;2023-05-18T02:56:08;7.65;;;4.05;;
37305;SDS011;23193;42.656;21.170;2023-05-18T02:58:36;6.80;;;3.42;;
37305;SDS011;23193;42.656;21.170;2023-05-18T03:01:03;4.57;;;3.17;;
37305;SDS011;23193;42.656;21.170;2023-05-18T03:03:31;7.55;;;3.17;;
37305;SDS011;23193;42.656;21.170;2023-05-18T03:05:58;8.95;;;3.30;;
37305;SDS011;23193;42.656;21.170;2023-05-18T03:08:26;5.18;;;3.47;;
37305;SDS011;23193;42.656;21.170;2023-05-18T03:10:53;7.28;;;3.55;;
37305;SDS011;23193;42.656;21.170;2023-05-18T03:13:19;6.95;;;3.85;;
37305;SDS011;23193;42.656;21.170;2023-05-18T03:15:46;8.40;;;4.03;;
37305;SDS011;23193;42.656;21.170;2023-05-18T03:18:13;7.60;;;4.50;;
37305;SDS011;23193;42.656;21.170;2023-05-18T03:20:39;8.35;;;4.03;;
37305;SDS011;23193;42.656;21.170;2023-05-18T03:23:06;6.38;;;4.28;;
37305;SDS011;23193;42.656;21.170;2023-05-18T03:25:32;7.07;;;5.10;;
37305;SDS011;23193;42.656;21.170;2023-05-18T03:28:02;9.48;;;5.10;;
37305;SDS011;23193;42.656;21.170;2023-05-18T03:30:30;7.57;;;4.75;;
37305;SDS011;23193;42.656;21.170;2023-05-18T03:32:56;5.70;;;4.60;;
37305;SDS011;23193;42.656;21.170;2023-05-18T03:35:23;8.82;;;5.55;;
37305;SDS011;23193;42.656;21.170;2023-05-18T03:37:49;12.32;;;7.22;;
37305;SDS011;23193;42.656;21.170;2023-05-18T03:40:16;17.33;;;9.60;;
37305;SDS011;23193;42.656;21.170;2023-05-18T03:42:42;12.50;;;9.02;;
37305;SDS011;23193;42.656;21.170;2023-05-18T03:45:09;14.95;;;8.40;;
37305;SDS011;23193;42.656;21.170;2023-05-18T03:47:35;11.07;;;7.30;;
37305;SDS011;23193;42.656;21.170;2023-05-18T03:50:02;8.68;;;6.05;;
37305;SDS011;23193;42.656;21.170;2023-05-18T03:52:29;6.70;;;5.88;;
37305;SDS011;23193;42.656;21.170;2023-05-18T03:54:58;7.75;;;5.72;;
37305;SDS011;23193;42.656;21.170;2023-05-18T03:57:24;8.18;;;5.65;;
37305;SDS011;23193;42.656;21.170;2023-05-18T03:59:51;5.65;;;4.80;;
37305;SDS011;23193;42.656;21.170;2023-05-18T04:02:17;7.65;;;5.25;;
37305;SDS011;23193;42.656;21.170;2023-05-18T04:04:43;12.85;;;5.30;;
37305;SDS011;23193;42.656;21.170;2023-05-18T04:07:13;13.60;;;5.13;;
37305;SDS011;23193;42.656;21.170;2023-05-18T04:09:46;8.70;;;4.90;;
37305;SDS011;23193;42.656;21.170;2023-05-18T04:12:12;10.85;;;5.50;;
37305;SDS011;23193;42.656;21.170;2023-05-18T04:14:39;7.93;;;5.40;;
37305;SDS011;23193;42.656;21.170;2023-05-18T04:17:08;10.27;;;5.75;;
37305;SDS011;23193;42.656;21.170;2023-05-18T04:19:34;8.93;;;5.50;;
37305;SDS011;23193;42.656;21.170;2023-05-18T04:22:01;10.27;;;5.63;;
37305;SDS011;23193;42.656;21.170;2023-05-18T04:24:30;8.45;;;5.53;;
37305;SDS011;23193;42.656;21.170;2023-05-18T04:27:00;9.98;;;6.10;;
37305;SDS011;23193;42.656;21.170;2023-05-18T04:29:27;8.77;;;5.05;;
37305;SDS011;23193;42.656;21.170;2023-05-18T04:31:56;6.40;;;5.03;;
37305;SDS011;23193;42.656;21.170;2023-05-18T04:34:25;15.23;;;5.90;;
37305;SDS011;23193;42.656;21.170;2023-05-18T04:36:51;13.70;;;5.95;;
37305;SDS011;23193;42.656;21.170;2023-05-18T04:39:23;7.00;;;5.68;;
37305;SDS011;23193;42.656;21.170;2023-05-18T04:41:51;10.23;;;6.22;;
37305;SDS011;23193;42.656;21.170;2023-05-18T04:44:24;9.60;;;7.05;;
37305;SDS011;23193;42.656;21.170;2023-05-18T04:46:51;10.93;;;6.57;;
37305;SDS011;23193;42.656;21.170;2023-05-18T04:49:18;12.00;;;6.53;;
37305;SDS011;23193;42.656;21.170;2023-05-18T04:51:48;7.57;;;6.20;;
37305;SDS011;23193;42.656;21.170;2023-05-18T04:54:14;8.95;;;6.38;;
37305;SDS011;23193;42.656;21.170;2023-05-18T04:56:41;9.00;;;6.65;;
37305;SDS011;23193;42.656;21.170;2023-05-18T04:59:07;9.30;;;6.10;;
37305;SDS011;23193;42.656;21.170;2023-05-18T05:01:34;9.65;;;7.13;;
37305;SDS011;23193;42.656;21.170;2023-05-18T05:04:01;7.95;;;6.00;;
37305;SDS011;23193;42.656;21.170;2023-05-18T05:06:27;6.80;;;6.10;;
37305;SDS011;23193;42.656;21.170;2023-05-18T05:08:54;9.32;;;5.90;;
37305;SDS011;23193;42.656;21.170;2023-05-18T05:11:20;7.07;;;6.38;;
37305;SDS011;23193;42.656;21.170;2023-05-18T05:13:46;11.73;;;6.15;;
37305;SDS011;23193;42.656;21.170;2023-05-18T05:16:12;7.90;;;6.07;;
37305;SDS011;23193;42.656;21.170;2023-05-18T05:18:38;12.80;;;5.75;;
37305;SDS011;23193;42.656;21.170;2023-05-18T05:21:04;7.20;;;4.93;;
37305;SDS011;23193;42.656;21.170;2023-05-18T05:23:31;6.13;;;4.85;;
37305;SDS011;23193;42.656;21.170;2023-05-18T05:25:57;9.35;;;5.93;;
37305;SDS011;23193;42.656;21.170;2023-05-18T05:28:23;11.10;;;6.47;;
37305;SDS011;23193;42.656;21.170;2023-05-18T05:30:49;6.95;;;5.90;;
37305;SDS011;23193;42.656;21.170;2023-05-18T05:33:16;9.93;;;6.45;;
37305;SDS011;23193;42.656;21.170;2023-05-18T05:35:42;6.65;;;5.47;;
37305;SDS011;23193;42.656;21.170;2023-05-18T05:38:09;10.80;;;5.20;;
37305;SDS011;23193;42.656;21.170;2023-05-18T05:40:35;7.03;;;5.47;;
37305;SDS011;23193;42.656;21.170;2023-05-18T05:43:03;8.13;;;5.60;;
37305;SDS011;23193;42.656;21.170;2023-05-18T05:45:29;7.28;;;4.88;;
37305;SDS011;23193;42.656;21.170;2023-05-18T05:47:55;5.15;;;4.63;;
37305;SDS011;23193;42.656;21.170;2023-05-18T05:50:21;6.95;;;5.00;;
37305;SDS011;23193;42.656;21.170;2023-05-18T05:52:48;7.45;;;4.80;;
37305;SDS011;23193;42.656;21.170;2023-05-18T05:55:14;5.95;;;5.10;;
37305;SDS011;23193;42.656;21.170;2023-05-18T05:57:40;7.07;;;4.93;;
37305;SDS011;23193;42.656;21.170;2023-05-18T06:00:08;6.55;;;4.38;;
37305;SDS011;23193;42.656;21.170;2023-05-18T06:02:35;6.28;;;5.20;;
37305;SDS011;23193;42.656;21.170;2023-05-18T06:05:02;5.90;;;5.25;;
37305;SDS011;23193;42.656;21.170;2023-05-18T06:07:29;8.45;;;5.45;;
37305;SDS011;23193;42.656;21.170;2023-05-18T06:09:55;5.95;;;5.28;;
37305;SDS011;23193;42.656;21.170;2023-05-18T06:12:21;9.35;;;5.60;;
37305;SDS011;23193;42.656;21.170;2023-05-18T06:14:48;5.90;;;4.80;;
37305;SDS011;23193;42.656;21.170;2023-05-18T06:17:16;7.05;;;4.38;;
37305;SDS011;23193;42.656;21.170;2023-05-18T06:19:43;9.07;;;4.90;;
37305;SDS011;23193;42.656;21.170;2023-05-18T06:22:09;8.70;;;6.22;;
37305;SDS011;23193;42.656;21.170;2023-05-18T06:24:35;9.57;;;5.20;;
37305;SDS011;23193;42.656;21.170;2023-05-18T06:27:02;9.65;;;5.88;;
37305;SDS011;23193;42.656;21.170;2023-05-18T06:29:29;7.88;;;4.60;;
37305;SDS011;23193;42.656;21.170;2023-05-18T06:31:55;6.15;;;4.60;;
37305;SDS011;23193;42.656;21.170;2023-05-18T06:34:22;10.35;;;5.85;;
37305;SDS011;23193;42.656;21.170;2023-05-18T06:36:48;11.32;;;6.30;;
37305;SDS011;23193;42.656;21.170;2023-05-18T06:39:14;10.38;;;5.18;;
37305;SDS011;23193;42.656;21.170;2023-05-18T06:41:40;11.70;;;4.90;;
37305;SDS011;23193;42.656;21.170;2023-05-18T06:44:09;11.07;;;4.80;;
37305;SDS011;23193;42.656;21.170;2023-05-18T06:46:35;8.73;;;4.45;;
37305;SDS011;23193;42.656;21.170;2023-05-18T06:49:01;10.77;;;4.45;;
37305;SDS011;23193;42.656;21.170;2023-05-18T06:51:27;6.40;;;4.07;;
37305;SDS011;23193;42.656;21.170;2023-05-18T06:53:53;5.13;;;3.70;;
37305;SDS011;23193;42.656;21.170;2023-05-18T06:56:20;9.43;;;5.13;;
37305;SDS011;23193;42.656;21.170;2023-05-18T06:58:46;8.23;;;5.57;;
37305;SDS011;23193;42.656;21.170;2023-05-18T07:01:12;6.35;;;3.60;;
37305;SDS011;23193;42.656;21.170;2023-05-18T07:03:39;4.68;;;3.50;;
37305;SDS011;23193;42.656;21.170;2023-05-18T07:06:05;5.63;;;3.30;;
37305;SDS011;23193;42.656;21.170;2023-05-18T07:08:31;5.10;;;3.38;;
37305;SDS011;23193;42.656;21.170;2023-05-18T07:10:59;5.55;;;2.88;;
37305;SDS011;23193;42.656;21.170;2023-05-18T07:13:26;7.28;;;3.97;;
37305;SDS011;23193;42.656;21.170;2023-05-18T07:15:52;12.02;;;4.22;;
37305;SDS011;23193;42.656;21.170;2023-05-18T07:18:18;6.65;;;3.50;;
37305;SDS011;23193;42.656;21.170;2023-05-18T07:20:45;11.60;;;3.78;;
37305;SDS011;23193;42.656;21.170;2023-05-18T07:23:11;6.15;;;2.58;;
37305;SDS011;23193;42.656;21.170;2023-05-18T07:25:38;9.57;;;4.65;;
37305;SDS011;23193;42.656;21.170;2023-05-18T07:28:04;4.65;;;3.50;;
37305;SDS011;23193;42.656;21.170;2023-05-18T07:30:30;10.50;;;4.38;;
37305;SDS011;23193;42.656;21.170;2023-05-18T07:32:56;8.63;;;3.30;;
37305;SDS011;23193;42.656;21.170;2023-05-18T07:35:23;9.10;;;3.78;;
37305;SDS011;23193;42.656;21.170;2023-05-18T07:37:50;6.63;;;2.90;;
37305;SDS011;23193;42.656;21.170;2023-05-18T07:40:18;9.43;;;4.93;;
37305;SDS011;23193;42.656;21.170;2023-05-18T07:42:44;5.15;;;2.28;;
37305;SDS011;23193;42.656;21.170;2023-05-18T07:45:11;2.83;;;2.00;;
37305;SDS011;23193;42.656;21.170;2023-05-18T07:47:37;2.05;;;1.65;;
37305;SDS011;23193;42.656;21.170;2023-05-18T07:50:04;4.85;;;1.65;;
37305;SDS011;23193;42.656;21.170;2023-05-18T07:52:30;16.55;;;2.53;;
37305;SDS011;23193;42.656;21.170;2023-05-18T07:54:56;4.57;;;2.05;;
37305;SDS011;23193;42.656;21.170;2023-05-18T07:57:23;4.03;;;1.88;;
37305;SDS011;23193;42.656;21.170;2023-05-18T07:59:50;16.88;;;2.10;;
37305;SDS011;23193;42.656;21.170;2023-05-18T08:02:16;3.70;;;1.70;;
37305;SDS011;23193;42.656;21.170;2023-05-18T08:04:44;8.25;;;1.95;;
37305;SDS011;23193;42.656;21.170;2023-05-18T08:07:10;8.90;;;1.77;;
37305;SDS011;23193;42.656;21.170;2023-05-18T08:09:37;4.00;;;1.67;;
37305;SDS011;23193;42.656;21.170;2023-05-18T08:12:03;6.18;;;2.30;;
37305;SDS011;23193;42.656;21.170;2023-05-18T08:14:30;5.15;;;2.15;;
37305;SDS011;23193;42.656;21.170;2023-05-18T08:16:56;8.02;;;2.72;;
37305;SDS011;23193;42.656;21.170;2023-05-18T08:19:22;7.78;;;2.22;;
37305;SDS011;23193;42.656;21.170;2023-05-18T08:21:48;5.25;;;3.10;;
37305;SDS011;23193;42.656;21.170;2023-05-18T08:24:15;16.25;;;8.10;;
37305;SDS011;23193;42.656;21.170;2023-05-18T08:26:41;19.77;;;8.57;;
37305;SDS011;23193;42.656;21.170;2023-05-18T08:29:07;5.82;;;4.07;;
37305;SDS011;23193;42.656;21.170;2023-05-18T08:31:36;8.15;;;4.32;;
37305;SDS011;23193;42.656;21.170;2023-05-18T08:34:05;3.55;;;2.58;;
37305;SDS011;23193;42.656;21.170;2023-05-18T08:36:32;23.10;;;8.80;;
37305;SDS011;23193;42.656;21.170;2023-05-18T08:38:58;12.93;;;4.03;;
37305;SDS011;23193;42.656;21.170;2023-05-18T08:41:31;4.82;;;2.25;;
37305;SDS011;23193;42.656;21.170;2023-05-18T08:44:00;6.00;;;2.55;;
37305;SDS011;23193;42.656;21.170;2023-05-18T08:46:33;11.00;;;3.10;;
37305;SDS011;23193;42.656;21.170;2023-05-18T08:49:00;3.38;;;2.05;;
37305;SDS011;23193;42.656;21.170;2023-05-18T08:51:28;7.90;;;2.10;;
37305;SDS011;23193;42.656;21.170;2023-05-18T08:53:56;7.38;;;3.60;;
37305;SDS011;23193;42.656;21.170;2023-05-18T08:56:24;5.90;;;2.40;;
37305;SDS011;23193;42.656;21.170;2023-05-18T08:58:56;8.60;;;3.13;;
37305;SDS011;23193;42.656;21.170;2023-05-18T09:01:26;10.40;;;4.65;;
37305;SDS011;23193;42.656;21.170;2023-05-18T09:03:56;13.32;;;5.15;;
37305;SDS011;23193;42.656;21.170;2023-05-18T09:06:22;5.35;;;3.30;;
37305;SDS011;23193;42.656;21.170;2023-05-18T09:08:50;7.80;;;2.72;;
37305;SDS011;23193;42.656;21.170;2023-05-18T09:11:18;10.15;;;3.08;;
37305;SDS011;23193;42.656;21.170;2023-05-18T09:13:45;15.07;;;3.80;;
37305;SDS011;23193;42.656;21.170;2023-05-18T09:16:13;14.32;;;5.93;;
37305;SDS011;23193;42.656;21.170;2023-05-18T09:18:40;10.85;;;5.45;;
37305;SDS011;23193;42.656;21.170;2023-05-18T09:21:06;7.30;;;4.10;;
37305;SDS011;23193;42.656;21.170;2023-05-18T09:23:32;10.38;;;3.58;;
37305;SDS011;23193;42.656;21.170;2023-05-18T09:25:58;6.32;;;3.05;;
37305;SDS011;23193;42.656;21.170;2023-05-18T09:28:32;4.82;;;2.95;;
37305;SDS011;23193;42.656;21.170;2023-05-18T09:31:00;9.93;;;3.70;;
37305;SDS011;23193;42.656;21.170;2023-05-18T09:33:26;8.82;;;3.53;;
37305;SDS011;23193;42.656;21.170;2023-05-18T09:35:58;10.30;;;4.35;;
37305;SDS011;23193;42.656;21.170;2023-05-18T09:38:24;5.65;;;3.03;;
37305;SDS011;23193;42.656;21.170;2023-05-18T09:40:52;11.80;;;4.93;;
37305;SDS011;23193;42.656;21.170;2023-05-18T09:43:18;3.65;;;3.00;;
37305;SDS011;23193;42.656;21.170;2023-05-18T09:45:45;5.50;;;2.83;;
37305;SDS011;23193;42.656;21.170;2023-05-18T09:48:13;4.55;;;3.35;;
37305;SDS011;23193;42.656;21.170;2023-05-18T09:50:40;7.55;;;3.85;;
37305;SDS011;23193;42.656;21.170;2023-05-18T09:53:06;7.30;;;3.65;;
37305;SDS011;23193;42.656;21.170;2023-05-18T09:55:54;9.63;;;4.13;;
37305;SDS011;23193;42.656;21.170;2023-05-18T09:58:19;7.85;;;3.83;;
37305;SDS011;23193;42.656;21.170;2023-05-18T10:00:46;8.23;;;5.45;;
37305;SDS011;23193;42.656;21.170;2023-05-18T10:03:21;16.95;;;7.95;;
37305;SDS011;23193;42.656;21.170;2023-05-18T10:05:48;11.87;;;7.13;;
37305;SDS011;23193;42.656;21.170;2023-05-18T10:08:15;8.82;;;5.25;;
37305;SDS011;23193;42.656;21.170;2023-05-18T10:10:45;8.95;;;5.15;;
37305;SDS011;23193;42.656;21.170;2023-05-18T10:13:15;24.02;;;9.63;;
37305;SDS011;23193;42.656;21.170;2023-05-18T10:18:12;12.02;;;7.15;;
37305;SDS011;23193;42.656;21.170;2023-05-18T10:20:43;6.50;;;4.30;;
37305;SDS011;23193;42.656;21.170;2023-05-18T10:23:09;8.23;;;3.60;;
37305;SDS011;23193;42.656;21.170;2023-05-18T10:25:36;6.32;;;4.60;;
37305;SDS011;23193;42.656;21.170;2023-05-18T10:28:05;6.82;;;3.50;;
37305;SDS011;23193;42.656;21.170;2023-05-18T10:30:33;7.63;;;3.95;;
37305;SDS011;23193;42.656;21.170;2023-05-18T10:32:59;6.30;;;3.85;;
37305;SDS011;23193;42.656;21.170;2023-05-18T10:35:26;10.50;;;3.90;;
37305;SDS011;23193;42.656;21.170;2023-05-18T10:37:54;6.32;;;3.47;;
37305;SDS011;23193;42.656;21.170;2023-05-18T10:40:20;5.10;;;3.75;;
37305;SDS011;23193;42.656;21.170;2023-05-18T10:42:47;4.38;;;3.67;;
37305;SDS011;23193;42.656;21.170;2023-05-18T10:45:14;12.10;;;4.93;;
37305;SDS011;23193;42.656;21.170;2023-05-18T10:47:40;11.93;;;4.30;;
37305;SDS011;23193;42.656;21.170;2023-05-18T10:50:08;7.43;;;4.40;;
37305;SDS011;23193;42.656;21.170;2023-05-18T10:52:37;7.03;;;3.95;;
37305;SDS011;23193;42.656;21.170;2023-05-18T10:55:05;7.57;;;5.68;;
37305;SDS011;23193;42.656;21.170;2023-05-18T10:57:33;8.18;;;3.67;;
37305;SDS011;23193;42.656;21.170;2023-05-18T11:00:01;7.88;;;4.07;;
37305;SDS011;23193;42.656;21.170;2023-05-18T11:02:28;8.45;;;4.70;;
37305;SDS011;23193;42.656;21.170;2023-05-18T11:04:54;5.03;;;4.30;;
37305;SDS011;23193;42.656;21.170;2023-05-18T11:07:21;9.85;;;4.32;;
37305;SDS011;23193;42.656;21.170;2023-05-18T11:09:48;14.55;;;4.30;;
37305;SDS011;23193;42.656;21.170;2023-05-18T11:12:17;8.68;;;4.88;;
37305;SDS011;23193;42.656;21.170;2023-05-18T11:14:53;10.05;;;4.15;;
37305;SDS011;23193;42.656;21.170;2023-05-18T11:17:22;8.95;;;5.00;;
37305;SDS011;23193;42.656;21.170;2023-05-18T11:25:23;7.90;;;5.13;;
37305;SDS011;23193;42.656;21.170;2023-05-18T11:28:02;9.77;;;6.47;;
37305;SDS011;23193;42.656;21.170;2023-05-18T11:35:33;8.38;;;6.10;;
37305;SDS011;23193;42.656;21.170;2023-05-18T11:38:07;9.60;;;6.15;;
37305;SDS011;23193;42.656;21.170;2023-05-18T11:40:43;7.88;;;6.05;;
37305;SDS011;23193;42.656;21.170;2023-05-18T11:43:23;10.27;;;5.90;;
37305;SDS011;23193;42.656;21.170;2023-05-18T11:45:53;29.95;;;7.85;;
37305;SDS011;23193;42.656;21.170;2023-05-18T11:48:21;11.20;;;5.70;;
37305;SDS011;23193;42.656;21.170;2023-05-18T11:50:47;14.93;;;6.05;;
37305;SDS011;23193;42.656;21.170;2023-05-18T11:53:14;17.80;;;7.57;;
37305;SDS011;23193;42.656;21.170;2023-05-18T11:55:41;15.93;;;6.82;;
37305;SDS011;23193;42.656;21.170;2023-05-18T11:58:07;15.20;;;6.53;;
37305;SDS011;23193;42.656;21.170;2023-05-18T12:00:35;10.40;;;6.13;;
37305;SDS011;23193;42.656;21.170;2023-05-18T12:03:01;15.65;;;8.88;;
37305;SDS011;23193;42.656;21.170;2023-05-18T12:05:29;7.95;;;5.82;;
37305;SDS011;23193;42.656;21.170;2023-05-18T12:07:55;10.45;;;7.38;;
37305;SDS011;23193;42.656;21.170;2023-05-18T12:10:22;14.05;;;8.50;;
37305;SDS011;23193;42.656;21.170;2023-05-18T12:12:52;17.35;;;7.15;;
37305;SDS011;23193;42.656;21.170;2023-05-18T12:15:21;9.35;;;7.00;;
37305;SDS011;23193;42.656;21.170;2023-05-18T12:17:49;13.50;;;7.57;;
37305;SDS011;23193;42.656;21.170;2023-05-18T12:20:16;15.15;;;7.63;;
37305;SDS011;23193;42.656;21.170;2023-05-18T12:22:49;15.05;;;8.18;;
37305;SDS011;23193;42.656;21.170;2023-05-18T12:25:16;17.30;;;8.07;;
37305;SDS011;23193;42.656;21.170;2023-05-18T12:27:44;11.07;;;7.07;;
37305;SDS011;23193;42.656;21.170;2023-05-18T12:30:17;13.77;;;8.65;;
37305;SDS011;23193;42.656;21.170;2023-05-18T12:35:10;17.05;;;9.18;;
37305;SDS011;23193;42.656;21.170;2023-05-18T12:37:40;19.17;;;9.82;;
37305;SDS011;23193;42.656;21.170;2023-05-18T12:40:08;17.92;;;10.70;;
37305;SDS011;23193;42.656;21.170;2023-05-18T12:42:34;23.75;;;14.18;;
37305;SDS011;23193;42.656;21.170;2023-05-18T12:45:00;17.92;;;12.90;;
37305;SDS011;23193;42.656;21.170;2023-05-18T12:47:27;16.38;;;12.88;;
37305;SDS011;23193;42.656;21.170;2023-05-18T12:49:55;22.38;;;13.40;;
37305;SDS011;23193;42.656;21.170;2023-05-18T12:52:21;17.15;;;12.80;;
37305;SDS011;23193;42.656;21.170;2023-05-18T12:54:48;25.75;;;14.43;;
37305;SDS011;23193;42.656;21.170;2023-05-18T12:57:19;18.67;;;13.23;;
37305;SDS011;23193;42.656;21.170;2023-05-18T12:59:49;26.73;;;15.27;;
37305;SDS011;23193;42.656;21.170;2023-05-18T13:02:29;31.58;;;15.60;;
37305;SDS011;23193;42.656;21.170;2023-05-18T13:05:02;25.77;;;14.52;;
37305;SDS011;23193;42.656;21.170;2023-05-18T13:07:28;17.63;;;14.63;;
37305;SDS011;23193;42.656;21.170;2023-05-18T13:10:07;22.83;;;16.50;;
37305;SDS011;23193;42.656;21.170;2023-05-18T13:12:52;18.15;;;14.43;;
37305;SDS011;23193;42.656;21.170;2023-05-18T13:15:23;19.98;;;15.57;;
37305;SDS011;23193;42.656;21.170;2023-05-18T13:23:13;28.52;;;17.08;;
37305;SDS011;23193;42.656;21.170;2023-05-18T13:25:40;24.80;;;15.88;;
37305;SDS011;23193;42.656;21.170;2023-05-18T13:28:06;24.77;;;16.10;;
37305;SDS011;23193;42.656;21.170;2023-05-18T13:30:34;25.33;;;18.13;;
37305;SDS011;23193;42.656;21.170;2023-05-18T13:33:01;21.27;;;15.13;;
37305;SDS011;23193;42.656;21.170;2023-05-18T13:35:30;27.92;;;18.17;;
37305;SDS011;23193;42.656;21.170;2023-05-18T13:37:56;19.27;;;15.93;;
37305;SDS011;23193;42.656;21.170;2023-05-18T13:40:23;22.08;;;16.40;;
37305;SDS011;23193;42.656;21.170;2023-05-18T13:42:49;22.75;;;18.27;;
37305;SDS011;23193;42.656;21.170;2023-05-18T13:45:16;31.55;;;17.67;;
37305;SDS011;23193;42.656;21.170;2023-05-18T13:47:42;18.63;;;14.55;;
37305;SDS011;23193;42.656;21.170;2023-05-18T13:50:31;30.70;;;18.63;;
37305;SDS011;23193;42.656;21.170;2023-05-18T13:52:57;29.20;;;20.52;;
37305;SDS011;23193;42.656;21.170;2023-05-18T13:55:29;25.65;;;18.63;;
37305;SDS011;23193;42.656;21.170;2023-05-18T13:57:59;21.77;;;16.35;;
37305;SDS011;23193;42.656;21.170;2023-05-18T14:00:26;27.80;;;19.33;;
37305;SDS011;23193;42.656;21.170;2023-05-18T14:02:52;34.13;;;20.35;;
37305;SDS011;23193;42.656;21.170;2023-05-18T14:05:18;30.58;;;18.30;;
37305;SDS011;23193;42.656;21.170;2023-05-18T14:07:44;58.10;;;19.00;;
37305;SDS011;23193;42.656;21.170;2023-05-18T14:10:12;24.33;;;16.85;;
37305;SDS011;23193;42.656;21.170;2023-05-18T14:12:38;27.42;;;17.77;;
37305;SDS011;23193;42.656;21.170;2023-05-18T14:15:08;26.08;;;16.08;;
37305;SDS011;23193;42.656;21.170;2023-05-18T14:17:34;30.20;;;17.13;;
37305;SDS011;23193;42.656;21.170;2023-05-18T14:20:01;24.08;;;16.77;;
37305;SDS011;23193;42.656;21.170;2023-05-18T14:22:29;19.50;;;15.48;;
37305;SDS011;23193;42.656;21.170;2023-05-18T14:24:55;21.10;;;16.10;;
37305;SDS011;23193;42.656;21.170;2023-05-18T14:27:22;25.98;;;16.77;;
37305;SDS011;23193;42.656;21.170;2023-05-18T14:29:48;26.27;;;18.02;;
37305;SDS011;23193;42.656;21.170;2023-05-18T14:32:15;25.63;;;17.13;;
37305;SDS011;23193;42.656;21.170;2023-05-18T14:34:41;22.25;;;17.45;;
37305;SDS011;23193;42.656;21.170;2023-05-18T14:37:07;20.42;;;16.45;;
37305;SDS011;23193;42.656;21.170;2023-05-18T14:39:34;32.22;;;17.85;;
37305;SDS011;23193;42.656;21.170;2023-05-18T14:42:01;33.80;;;20.88;;
37305;SDS011;23193;42.656;21.170;2023-05-18T14:44:28;27.70;;;20.00;;
37305;SDS011;23193;42.656;21.170;2023-05-18T14:46:54;29.02;;;19.75;;
37305;SDS011;23193;42.656;21.170;2023-05-18T14:49:20;27.35;;;20.77;;
37305;SDS011;23193;42.656;21.170;2023-05-18T14:51:46;32.70;;;18.75;;
37305;SDS011;23193;42.656;21.170;2023-05-18T14:54:12;29.92;;;17.58;;
37305;SDS011;23193;42.656;21.170;2023-05-18T14:56:39;31.60;;;18.23;;
37305;SDS011;23193;42.656;21.170;2023-05-18T14:59:05;35.40;;;21.10;;
37305;SDS011;23193;42.656;21.170;2023-05-18T15:01:31;32.13;;;21.50;;